createdAt,value
2023-01-19T00:00:31.634Z,68.46
2023-01-19T00:02:34.228Z,68.72
2023-01-19T00:04:36.794Z,68.41
2023-01-19T00:06:39.399Z,68.50
2023-01-19T00:08:44.715Z,67.95
2023-01-19T00:10:50.964Z,68.50
2023-01-19T00:12:53.517Z,68.50
2023-01-19T00:14:56.116Z,68.53
2023-01-19T00:16:58.888Z,68.63
2023-01-19T00:19:01.440Z,69.16
2023-01-19T00:21:03.995Z,68.89
2023-01-19T00:23:07.959Z,68.24
2023-01-19T00:25:12.179Z,69.05
2023-01-19T00:27:14.730Z,68.00
2023-01-19T00:29:17.298Z,68.16
2023-01-19T00:31:21.762Z,67.77
2023-01-19T00:33:24.494Z,68.00
2023-01-19T00:35:27.167Z,67.61
2023-01-19T00:37:29.694Z,67.19
2023-01-19T00:39:32.293Z,67.75
2023-01-19T00:41:54.112Z,67.36
2023-01-19T00:43:56.695Z,67.78
2023-01-19T00:45:59.253Z,68.10
2023-01-19T00:48:02.045Z,67.53
2023-01-19T00:50:05.407Z,68.45
2023-01-19T00:52:07.995Z,68.18
2023-01-19T00:54:10.591Z,67.47
2023-01-19T00:56:13.147Z,67.21
2023-01-19T00:58:17.059Z,67.66
2023-01-19T01:00:21.092Z,68.00
2023-01-19T01:02:23.821Z,67.53
2023-01-19T01:04:26.449Z,67.50
2023-01-19T01:06:29.069Z,68.40
2023-01-19T01:08:31.719Z,67.54
2023-01-19T01:10:34.269Z,67.71
2023-01-19T01:12:36.959Z,68.24
2023-01-19T01:14:41.105Z,67.56
2023-01-19T01:16:43.739Z,67.73
2023-01-19T01:18:46.283Z,68.39
2023-01-19T01:20:48.988Z,67.44
2023-01-19T01:22:53.636Z,67.89
2023-01-19T01:24:56.290Z,67.10
2023-01-19T01:26:58.894Z,67.22
2023-01-19T01:29:01.425Z,67.61
2023-01-19T01:31:05.666Z,67.70
2023-01-19T01:33:08.503Z,67.58
2023-01-19T01:35:12.123Z,68.22
2023-01-19T01:37:14.676Z,67.54
2023-01-19T01:39:17.231Z,67.27
2023-01-19T01:41:21.878Z,67.47
2023-01-19T01:43:43.939Z,67.60
2023-01-19T01:45:47.734Z,67.74
2023-01-19T01:47:52.971Z,67.83
2023-01-19T01:50:03.312Z,67.38
2023-01-19T01:52:05.953Z,67.58
2023-01-19T01:54:16.775Z,67.75
2023-01-19T01:56:25.575Z,67.66
2023-01-19T01:58:28.502Z,67.57
2023-01-19T02:00:52.676Z,67.91
2023-01-19T02:02:55.782Z,67.58
2023-01-19T02:05:04.092Z,67.25
2023-01-19T02:07:24.277Z,67.75
2023-01-19T02:09:47.361Z,68.61
2023-01-19T02:12:07.808Z,67.85
2023-01-19T02:14:10.371Z,68.24
2023-01-19T02:16:13.404Z,68.51
2023-01-19T02:18:17.619Z,67.87
2023-01-19T02:20:24.428Z,67.69
2023-01-19T02:22:35.965Z,67.35
2023-01-19T02:24:39.900Z,67.74
2023-01-19T02:26:47.066Z,68.34
2023-01-19T02:28:54.948Z,67.34
2023-01-19T02:30:57.828Z,67.69
2023-01-19T02:33:01.304Z,67.67
2023-01-19T02:35:04.188Z,68.13
2023-01-19T02:37:11.345Z,68.29
2023-01-19T02:39:16.548Z,67.99
2023-01-19T02:41:23.793Z,68.33
2023-01-19T02:43:28.717Z,67.69
2023-01-19T02:45:33.014Z,68.15
2023-01-19T02:47:39.817Z,67.82
2023-01-19T02:49:42.811Z,68.15
2023-01-19T02:51:45.517Z,67.50
2023-01-19T02:54:06.223Z,67.75
2023-01-19T02:56:39.563Z,67.64
2023-01-19T02:58:48.965Z,67.56
2023-01-19T03:01:01.593Z,67.76
2023-01-19T03:03:21.014Z,68.16
2023-01-19T03:05:34.501Z,68.16
2023-01-19T03:07:50.371Z,68.14
2023-01-19T03:10:00.156Z,67.65
2023-01-19T03:12:10.211Z,68.04
2023-01-19T03:14:18.138Z,67.96
2023-01-19T03:16:23.585Z,67.96
2023-01-19T03:18:30.140Z,67.96
2023-01-19T03:20:33.241Z,68.17
2023-01-19T03:22:36.087Z,67.74
2023-01-19T03:24:43.263Z,67.79
2023-01-19T03:26:50.453Z,68.05
2023-01-19T03:28:53.418Z,67.90
2023-01-19T03:31:03.119Z,67.78
2023-01-19T03:33:09.561Z,67.77
2023-01-19T03:35:15.508Z,67.47
2023-01-19T03:37:21.341Z,67.80
2023-01-19T03:39:25.658Z,67.67
2023-01-19T03:41:30.673Z,67.50
2023-01-19T03:43:35.802Z,67.65
2023-01-19T03:45:40.047Z,67.50
2023-01-19T03:47:45.032Z,67.29
2023-01-19T03:49:50.725Z,67.50
2023-01-19T03:51:56.604Z,68.16
2023-01-19T03:54:01.285Z,67.98
2023-01-19T03:56:04.017Z,67.70
2023-01-19T03:58:06.907Z,67.89
2023-01-19T04:00:10.900Z,67.85
2023-01-19T04:02:13.612Z,67.82
2023-01-19T04:04:17.559Z,67.55
2023-01-19T04:06:21.445Z,67.72
2023-01-19T04:08:23.995Z,67.63
2023-01-19T04:10:26.548Z,68.15
2023-01-19T04:12:29.124Z,67.76
2023-01-19T04:14:32.077Z,68.23
2023-01-19T04:16:34.664Z,67.53
2023-01-19T04:18:37.280Z,67.86
2023-01-19T04:20:41.226Z,67.50
2023-01-19T04:22:43.832Z,67.20
2023-01-19T04:24:46.414Z,67.03
2023-01-19T04:26:48.961Z,66.53
2023-01-19T04:28:51.504Z,66.84
2023-01-19T04:30:54.680Z,66.60
2023-01-19T04:33:00.130Z,66.86
2023-01-19T04:35:02.880Z,67.31
2023-01-19T04:37:08.406Z,67.09
2023-01-19T04:39:11.695Z,67.31
2023-01-19T04:41:14.250Z,67.66
2023-01-19T04:43:16.980Z,67.24
2023-01-19T04:45:19.589Z,67.20
2023-01-19T04:47:22.221Z,67.37
2023-01-19T04:49:24.935Z,67.35
2023-01-19T04:51:28.661Z,66.96
2023-01-19T04:53:32.780Z,66.76
2023-01-19T04:55:35.453Z,66.19
2023-01-19T04:57:38.027Z,67.05
2023-01-19T04:59:40.609Z,66.92
2023-01-19T05:01:43.389Z,67.41
2023-01-19T05:03:46.189Z,67.33
2023-01-19T05:05:48.749Z,67.00
2023-01-19T05:07:51.260Z,66.58
2023-01-19T05:09:55.261Z,66.63
2023-01-19T05:11:57.807Z,67.16
2023-01-19T05:14:00.403Z,67.40
2023-01-19T05:16:03.251Z,67.55
2023-01-19T05:18:05.902Z,67.70
2023-01-19T05:20:11.253Z,67.78
2023-01-19T05:22:13.953Z,67.96
2023-01-19T05:24:16.487Z,67.84
2023-01-19T05:26:20.392Z,68.14
2023-01-19T05:28:23.097Z,67.52
2023-01-19T05:30:25.703Z,67.58
2023-01-19T05:32:28.277Z,67.50
2023-01-19T05:34:30.879Z,67.28
2023-01-19T05:36:33.534Z,67.69
2023-01-19T05:38:36.302Z,67.83
2023-01-19T05:40:38.878Z,67.10
2023-01-19T05:42:42.738Z,66.91
2023-01-19T05:44:45.330Z,66.32
2023-01-19T05:46:48.134Z,66.75
2023-01-19T05:48:50.755Z,67.03
2023-01-19T05:50:58.586Z,67.78
2023-01-19T05:53:01.798Z,67.24
2023-01-19T05:55:04.901Z,67.14
2023-01-19T05:57:07.702Z,66.79
2023-01-19T05:59:12.457Z,67.19
2023-01-19T06:01:15.052Z,67.21
2023-01-19T06:03:17.699Z,67.89
2023-01-19T06:05:20.436Z,67.33
2023-01-19T06:07:24.375Z,67.10
2023-01-19T06:09:27.704Z,67.46
2023-01-19T06:11:30.330Z,67.67
2023-01-19T06:13:32.905Z,66.91
2023-01-19T06:15:37.495Z,67.48
2023-01-19T06:17:40.031Z,67.07
2023-01-19T06:19:42.856Z,66.25
2023-01-19T06:21:49.648Z,66.93
2023-01-19T06:23:52.256Z,66.73
2023-01-19T06:25:54.880Z,66.72
2023-01-19T06:27:57.500Z,67.02
2023-01-19T06:30:00.093Z,66.21
2023-01-19T06:32:04.187Z,66.36
2023-01-19T06:34:06.897Z,65.98
2023-01-19T06:36:09.966Z,66.31
2023-01-19T06:38:13.422Z,67.00
2023-01-19T06:40:16.239Z,67.68
2023-01-19T06:42:18.791Z,67.69
2023-01-19T06:44:21.356Z,66.97
2023-01-19T06:46:23.950Z,66.90
2023-01-19T06:48:28.061Z,66.22
2023-01-19T06:50:30.704Z,66.43
2023-01-19T06:52:33.271Z,67.61
2023-01-19T06:54:35.827Z,66.99
2023-01-19T06:56:38.383Z,66.99
2023-01-19T06:58:42.598Z,67.55
2023-01-19T07:00:45.210Z,66.25
2023-01-19T07:02:47.942Z,67.25
2023-01-19T07:04:51.865Z,67.41
2023-01-19T07:06:54.805Z,66.86
2023-01-19T07:08:57.829Z,66.69
2023-01-19T07:11:24.922Z,66.41
2023-01-19T07:13:24.631Z,66.32
2023-01-19T07:15:27.218Z,66.63
2023-01-19T07:17:29.772Z,67.71
2023-01-19T07:19:34.802Z,67.21
2023-01-19T07:21:38.741Z,67.33
2023-01-19T07:23:41.285Z,67.67
2023-01-19T07:25:46.154Z,67.09
2023-01-19T07:27:48.741Z,67.50
2023-01-19T07:29:51.271Z,67.63
2023-01-19T07:31:54.944Z,67.45
2023-01-19T07:33:57.924Z,67.48
2023-01-19T07:36:00.461Z,66.87
2023-01-19T07:38:04.872Z,66.83
2023-01-19T07:40:08.359Z,66.92
2023-01-19T07:42:11.027Z,66.97
2023-01-19T07:44:13.660Z,66.60
2023-01-19T07:46:16.301Z,66.39
2023-01-19T07:48:18.924Z,66.54
2023-01-19T07:50:24.483Z,66.34
2023-01-19T07:52:27.059Z,66.77
2023-01-19T07:54:31.038Z,66.43
2023-01-19T07:56:33.881Z,66.58
2023-01-19T07:58:36.790Z,66.37
2023-01-19T08:00:39.662Z,66.70
2023-01-19T08:02:42.263Z,66.55
2023-01-19T08:04:44.902Z,66.93
2023-01-19T08:06:51.453Z,66.64
2023-01-19T08:08:54.043Z,67.29
2023-01-19T08:10:57.979Z,67.13
2023-01-19T08:13:00.808Z,66.52
2023-01-19T08:15:03.624Z,66.56
2023-01-19T08:17:06.180Z,66.16
2023-01-19T08:19:08.928Z,65.88
2023-01-19T08:21:11.471Z,66.23
2023-01-19T08:23:14.317Z,66.16
2023-01-19T08:25:17.120Z,65.00
2023-01-19T08:27:20.997Z,66.03
2023-01-19T08:29:23.585Z,65.90
2023-01-19T08:31:27.458Z,66.16
2023-01-19T08:33:30.101Z,65.56
2023-01-19T08:35:32.864Z,65.65
2023-01-19T08:37:35.456Z,65.49
2023-01-19T08:39:37.997Z,64.75
2023-01-19T08:41:40.569Z,65.26
2023-01-19T08:43:45.371Z,64.17
2023-01-19T08:45:52.732Z,63.63
2023-01-19T08:47:56.392Z,63.77
2023-01-19T08:49:58.919Z,64.23
2023-01-19T08:52:03.044Z,65.16
2023-01-19T08:54:06.126Z,65.24
2023-01-19T08:56:12.401Z,64.20
2023-01-19T08:58:14.962Z,64.57
2023-01-19T09:00:19.872Z,64.52
2023-01-19T09:02:22.519Z,65.23
2023-01-19T09:04:25.596Z,64.63
2023-01-19T09:06:28.421Z,64.27
2023-01-19T09:08:31.058Z,64.36
2023-01-19T09:10:36.006Z,64.70
2023-01-19T09:12:38.627Z,64.75
2023-01-19T09:14:41.256Z,64.79
2023-01-19T09:16:45.169Z,64.79
2023-01-19T09:18:47.726Z,64.48
2023-01-19T09:20:51.356Z,64.68
2023-01-19T09:22:56.224Z,64.68
2023-01-19T09:24:58.797Z,65.17
2023-01-19T09:27:01.377Z,65.36
2023-01-19T09:29:03.948Z,65.47
2023-01-19T09:31:07.923Z,64.57
2023-01-19T09:33:13.409Z,65.13
2023-01-19T09:35:16.408Z,65.33
2023-01-19T09:37:18.979Z,64.87
2023-01-19T09:39:21.561Z,64.34
2023-01-19T09:41:26.163Z,64.78
2023-01-19T09:43:39.665Z,64.13
2023-01-19T09:45:49.992Z,63.42
2023-01-19T09:47:53.396Z,63.28
2023-01-19T09:50:02.462Z,63.41
2023-01-19T09:52:05.050Z,63.34
2023-01-19T09:54:14.437Z,63.53
2023-01-19T09:56:19.987Z,62.24
2023-01-19T09:58:23.808Z,62.75
2023-01-19T10:00:29.674Z,63.17
2023-01-19T10:02:37.905Z,62.42
2023-01-19T10:04:42.422Z,62.12
2023-01-19T10:06:48.629Z,62.73
2023-01-19T10:09:03.486Z,62.69
2023-01-19T10:11:18.362Z,62.97
2023-01-19T10:13:32.793Z,63.09
2023-01-19T10:15:47.225Z,62.68
2023-01-19T10:18:04.315Z,61.59
2023-01-19T10:20:17.901Z,61.47
2023-01-19T10:22:23.792Z,61.67
2023-01-19T10:24:29.215Z,61.45
2023-01-19T10:26:34.579Z,62.56
2023-01-19T10:28:39.170Z,62.14
2023-01-19T10:30:45.084Z,61.70
2023-01-19T10:32:47.961Z,62.42
2023-01-19T10:34:52.464Z,62.16
2023-01-19T10:37:03.584Z,62.00
2023-01-19T10:39:09.161Z,62.57
2023-01-19T10:41:18.271Z,62.87
2023-01-19T10:43:37.898Z,61.67
2023-01-19T10:45:40.563Z,62.98
2023-01-19T10:47:45.284Z,62.80
2023-01-19T10:49:48.996Z,62.17
2023-01-19T10:51:51.645Z,62.38
2023-01-19T10:54:00.875Z,63.37
2023-01-19T10:56:17.789Z,62.99
2023-01-19T10:58:30.921Z,62.35
2023-01-19T11:00:37.716Z,62.84
2023-01-19T11:02:51.622Z,63.69
2023-01-19T11:04:56.945Z,62.97
2023-01-19T11:07:15.284Z,63.96
2023-01-19T11:09:20.070Z,63.81
2023-01-19T11:11:25.613Z,63.24
2023-01-19T11:13:28.197Z,63.60
2023-01-19T11:15:33.859Z,64.43
2023-01-19T11:17:36.818Z,64.36
2023-01-19T11:19:39.406Z,64.21
2023-01-19T11:21:42.044Z,64.29
2023-01-19T11:23:50.978Z,64.08
2023-01-19T11:25:55.833Z,64.81
2023-01-19T11:27:59.862Z,63.75
2023-01-19T11:30:10.304Z,64.24
2023-01-19T11:32:21.980Z,63.68
2023-01-19T11:34:31.202Z,63.56
2023-01-19T11:36:35.931Z,62.27
2023-01-19T11:38:43.441Z,62.70
2023-01-19T11:40:53.776Z,62.97
2023-01-19T11:42:56.339Z,63.09
2023-01-19T11:45:08.616Z,62.74
2023-01-19T11:47:17.266Z,62.41
2023-01-19T11:49:26.983Z,62.36
2023-01-19T11:51:36.095Z,62.12
2023-01-19T11:53:38.713Z,62.54
2023-01-19T11:55:48.478Z,62.86
2023-01-19T11:57:54.390Z,63.05
2023-01-19T12:00:03.337Z,63.21
2023-01-19T12:02:19.937Z,62.53
2023-01-19T12:04:28.869Z,63.34
2023-01-19T12:06:34.647Z,64.06
2023-01-19T12:08:41.998Z,63.63
2023-01-19T12:10:48.103Z,63.46
2023-01-19T12:12:52.211Z,63.80
2023-01-19T12:14:58.993Z,64.11
2023-01-19T12:17:06.572Z,64.13
2023-01-19T12:19:17.509Z,64.39
2023-01-19T12:21:20.838Z,63.84
2023-01-19T12:23:31.592Z,63.83
2023-01-19T12:25:46.608Z,63.40
2023-01-19T12:27:51.012Z,63.44
2023-01-19T12:29:55.529Z,63.45
2023-01-19T12:32:21.116Z,64.11
2023-01-19T12:34:41.480Z,63.32
2023-01-19T12:36:44.066Z,63.22
2023-01-19T12:38:53.473Z,63.08
2023-01-19T12:41:17.402Z,62.53
2023-01-19T12:43:20.357Z,62.48
2023-01-19T12:45:25.648Z,62.87
2023-01-19T12:47:28.239Z,62.42
2023-01-19T12:49:35.598Z,62.57
2023-01-19T12:51:38.274Z,62.75
2023-01-19T12:53:41.684Z,62.88
2023-01-19T12:55:46.590Z,64.04
2023-01-19T12:57:55.176Z,63.93
2023-01-19T12:59:59.823Z,64.19
2023-01-19T13:02:51.233Z,63.02
2023-01-19T13:05:14.375Z,63.61
2023-01-19T13:07:18.074Z,63.95
2023-01-19T13:09:30.877Z,63.79
2023-01-19T13:11:34.677Z,63.80
2023-01-19T13:13:38.688Z,63.98
2023-01-19T13:15:41.448Z,63.70
2023-01-19T13:17:50.996Z,64.29
2023-01-19T13:19:59.801Z,64.60
2023-01-19T13:22:42.175Z,64.39
2023-01-19T13:24:59.615Z,64.26
2023-01-19T13:27:04.809Z,64.76
2023-01-19T13:29:09.455Z,64.52
2023-01-19T13:31:13.945Z,63.02
2023-01-19T13:33:21.929Z,63.32
2023-01-19T13:35:25.326Z,62.89
2023-01-19T13:37:34.746Z,62.90
2023-01-19T13:39:41.405Z,62.48
2023-01-19T13:41:45.461Z,62.67
2023-01-19T13:43:52.939Z,62.50
2023-01-19T13:45:56.848Z,62.32
2023-01-19T13:48:01.846Z,62.82
2023-01-19T13:50:04.827Z,62.86
2023-01-19T13:52:13.916Z,62.29
2023-01-19T13:54:17.808Z,62.66
2023-01-19T13:56:23.304Z,63.56
2023-01-19T13:58:26.165Z,63.41
2023-01-19T14:00:31.319Z,63.67
2023-01-19T14:02:34.132Z,63.77
2023-01-19T14:04:36.763Z,63.25
2023-01-19T14:06:45.584Z,62.76
2023-01-19T14:08:48.150Z,62.90
2023-01-19T14:11:02.925Z,63.29
2023-01-19T14:13:07.217Z,64.18
2023-01-19T14:15:14.151Z,64.56
2023-01-19T14:17:27.147Z,63.67
2023-01-19T14:19:29.761Z,63.02
2023-01-19T14:21:40.419Z,63.69
2023-01-19T14:23:47.133Z,63.96
2023-01-19T14:25:49.747Z,63.70
2023-01-19T14:27:52.490Z,64.27
2023-01-19T14:29:55.077Z,64.18
2023-01-19T14:32:13.634Z,64.86
2023-01-19T14:34:35.328Z,64.91
2023-01-19T14:36:40.250Z,64.45
2023-01-19T14:38:44.819Z,64.97
2023-01-19T14:40:47.613Z,64.74
2023-01-19T14:42:53.546Z,65.44
2023-01-19T14:44:58.138Z,65.21
2023-01-19T14:47:01.427Z,65.39
2023-01-19T14:49:06.984Z,65.48
2023-01-19T14:51:19.353Z,65.89
2023-01-19T14:53:25.613Z,65.85
2023-01-19T14:55:34.900Z,66.13
2023-01-19T14:57:37.882Z,66.13
2023-01-19T14:59:48.280Z,66.21
2023-01-19T15:01:50.903Z,65.68
2023-01-19T15:03:53.505Z,66.08
2023-01-19T15:05:57.308Z,66.39
2023-01-19T15:08:03.222Z,66.06
2023-01-19T15:10:11.595Z,65.61
2023-01-19T15:12:17.551Z,65.91
2023-01-19T15:14:25.014Z,65.54
2023-01-19T15:16:29.900Z,66.22
2023-01-19T15:18:32.554Z,65.51
2023-01-19T15:20:35.192Z,66.26
2023-01-19T15:22:37.720Z,66.08
2023-01-19T15:24:41.650Z,65.67
2023-01-19T15:26:44.406Z,65.75
2023-01-19T15:28:48.762Z,66.04
2023-01-19T15:30:53.687Z,66.50
2023-01-19T15:32:56.314Z,66.48
2023-01-19T15:34:58.875Z,66.58
2023-01-19T15:37:01.419Z,66.26
2023-01-19T15:39:04.013Z,66.13
2023-01-19T15:41:14.000Z,66.64
2023-01-19T15:43:16.651Z,66.08
2023-01-19T15:45:32.306Z,66.72
2023-01-19T15:47:34.979Z,66.21
2023-01-19T15:49:37.768Z,66.61
2023-01-19T15:51:40.302Z,66.40
2023-01-19T15:53:43.439Z,66.67
2023-01-19T15:55:49.904Z,66.99
2023-01-19T15:57:53.780Z,66.37
2023-01-19T15:59:56.363Z,66.48
2023-01-19T16:01:59.010Z,66.45
2023-01-19T16:04:05.798Z,66.77
2023-01-19T16:06:08.892Z,66.66
2023-01-19T16:08:11.969Z,66.82
2023-01-19T16:10:16.842Z,67.25
2023-01-19T16:12:19.429Z,66.95
2023-01-19T16:14:23.331Z,67.21
2023-01-19T16:16:28.136Z,67.48
2023-01-19T16:18:30.839Z,67.71
2023-01-19T16:20:33.686Z,67.56
2023-01-19T16:22:36.741Z,67.62
2023-01-19T16:24:39.364Z,67.53
2023-01-19T16:26:41.979Z,67.43
2023-01-19T16:28:44.502Z,67.71
2023-01-19T16:30:49.437Z,67.07
2023-01-19T16:32:52.008Z,67.38
2023-01-19T16:34:54.624Z,67.45
2023-01-19T16:36:57.188Z,66.83
2023-01-19T16:39:00.679Z,66.55
2023-01-19T16:41:03.243Z,67.29
2023-01-19T16:43:05.878Z,67.05
2023-01-19T16:45:09.185Z,67.04
2023-01-19T16:47:13.111Z,66.88
2023-01-19T16:49:17.745Z,67.45
2023-01-19T16:51:20.540Z,67.33
2023-01-19T16:53:23.135Z,67.41
2023-01-19T16:55:25.693Z,67.06
2023-01-19T16:57:28.241Z,67.38
2023-01-19T16:59:30.865Z,67.75
2023-01-19T17:01:33.624Z,67.78
2023-01-19T17:03:38.409Z,67.13
2023-01-19T17:05:41.127Z,67.62
2023-01-19T17:07:44.432Z,67.26
2023-01-19T17:09:46.951Z,66.67
2023-01-19T17:11:49.542Z,66.15
2023-01-19T17:13:55.073Z,66.83
2023-01-19T17:16:00.592Z,66.99
2023-01-19T17:18:03.189Z,66.83
2023-01-19T17:20:08.584Z,67.72
2023-01-19T17:22:11.853Z,66.66
2023-01-19T17:24:14.465Z,67.64
2023-01-19T17:26:18.523Z,67.72
2023-01-19T17:28:21.303Z,67.97
2023-01-19T17:30:23.915Z,67.56
2023-01-19T17:32:26.518Z,68.01
2023-01-19T17:34:29.067Z,67.71
2023-01-19T17:36:34.165Z,68.48
2023-01-19T17:38:37.303Z,67.89
2023-01-19T17:40:40.576Z,68.43
2023-01-19T17:42:43.170Z,68.14
2023-01-19T17:44:45.752Z,67.67
2023-01-19T17:46:48.552Z,67.64
2023-01-19T17:48:54.786Z,67.58
2023-01-19T17:51:02.718Z,67.76
2023-01-19T17:53:06.867Z,67.46
2023-01-19T17:55:10.457Z,67.47
2023-01-19T17:57:13.035Z,67.98
2023-01-19T17:59:15.585Z,67.38
2023-01-19T18:01:20.363Z,68.06
2023-01-19T18:03:23.010Z,68.08
2023-01-19T18:05:25.615Z,67.89
2023-01-19T18:07:28.934Z,67.48
2023-01-19T18:09:32.889Z,67.08
2023-01-19T18:11:36.113Z,67.49
2023-01-19T18:13:39.508Z,66.93
2023-01-19T18:15:42.039Z,67.55
2023-01-19T18:17:44.624Z,67.35
2023-01-19T18:19:47.229Z,67.61
2023-01-19T18:21:50.929Z,67.86
2023-01-19T18:23:53.511Z,67.15
2023-01-19T18:26:01.222Z,67.10
2023-01-19T18:28:05.385Z,66.52
2023-01-19T18:30:12.166Z,66.89
2023-01-19T18:32:14.985Z,67.00
2023-01-19T18:34:17.619Z,67.24
2023-01-19T18:36:20.309Z,66.70
2023-01-19T18:38:22.926Z,66.69
2023-01-19T18:40:25.654Z,66.68
2023-01-19T18:42:29.702Z,66.70
2023-01-19T18:44:32.231Z,66.76
2023-01-19T18:46:34.913Z,66.86
2023-01-19T18:48:38.195Z,66.46
2023-01-19T18:50:40.787Z,66.34
2023-01-19T18:52:43.378Z,66.91
2023-01-19T18:54:45.901Z,66.09
2023-01-19T18:56:50.967Z,66.58
2023-01-19T18:58:57.912Z,66.73
2023-01-19T19:01:01.780Z,67.03
2023-01-19T19:03:07.211Z,67.23
2023-01-19T19:05:10.124Z,66.89
2023-01-19T19:07:12.674Z,66.88
2023-01-19T19:09:15.272Z,65.99
2023-01-19T19:11:18.560Z,65.84
2023-01-19T19:13:21.857Z,66.14
2023-01-19T19:15:27.080Z,66.03
2023-01-19T19:17:29.624Z,66.52
2023-01-19T19:19:32.211Z,66.65
2023-01-19T19:21:34.846Z,66.51
2023-01-19T19:23:38.262Z,67.14
2023-01-19T19:25:40.819Z,66.71
2023-01-19T19:27:45.370Z,67.14
2023-01-19T19:29:48.699Z,67.12
2023-01-19T19:31:52.689Z,67.14
2023-01-19T19:33:58.145Z,67.19
2023-01-19T19:36:01.023Z,67.07
2023-01-19T19:38:04.388Z,67.60
2023-01-19T19:40:07.964Z,67.24
2023-01-19T19:42:10.531Z,67.28
2023-01-19T19:44:13.558Z,67.88
2023-01-19T19:46:17.736Z,67.84
2023-01-19T19:48:21.741Z,68.05
2023-01-19T19:50:24.301Z,67.87
2023-01-19T19:52:27.616Z,68.62
2023-01-19T19:54:30.141Z,68.51
2023-01-19T19:56:34.312Z,68.73
2023-01-19T19:58:38.697Z,68.57
2023-01-19T20:00:44.025Z,68.89
2023-01-19T20:02:46.569Z,68.23
2023-01-19T20:04:50.652Z,68.06
2023-01-19T20:06:53.214Z,68.02
2023-01-19T20:08:56.992Z,67.48
2023-01-19T20:11:06.287Z,67.97
2023-01-19T20:13:09.317Z,67.12
2023-01-19T20:15:12.559Z,67.45
2023-01-19T20:17:15.117Z,66.78
2023-01-19T20:19:18.818Z,66.91
2023-01-19T20:21:25.045Z,66.48
2023-01-19T20:23:27.711Z,67.08
2023-01-19T20:25:30.438Z,66.81
2023-01-19T20:27:33.048Z,67.10
2023-01-19T20:29:35.643Z,67.38
2023-01-19T20:31:39.922Z,66.92
2023-01-19T20:33:43.146Z,67.20
2023-01-19T20:35:45.686Z,66.40
2023-01-19T20:37:49.623Z,66.90
2023-01-19T20:39:52.468Z,66.75
2023-01-19T20:41:57.522Z,66.47
2023-01-19T20:44:00.066Z,67.32
2023-01-19T20:46:03.239Z,66.87
2023-01-19T20:48:06.409Z,66.20
2023-01-19T20:50:10.280Z,66.54
2023-01-19T20:52:12.847Z,66.62
2023-01-19T20:54:19.071Z,66.33
2023-01-19T20:56:21.843Z,65.82
2023-01-19T20:58:24.647Z,65.81
2023-01-19T21:00:27.191Z,65.75
2023-01-19T21:02:29.795Z,65.95
2023-01-19T21:04:32.389Z,66.03
2023-01-19T21:06:35.096Z,65.78
2023-01-19T21:08:38.239Z,66.48
2023-01-19T21:10:42.459Z,65.44
2023-01-19T21:12:45.630Z,66.09
2023-01-19T21:14:48.228Z,65.77
2023-01-19T21:16:52.302Z,66.20
2023-01-19T21:18:55.795Z,66.45
2023-01-19T21:20:58.865Z,66.40
2023-01-19T21:23:01.434Z,66.99
2023-01-19T21:25:04.116Z,67.00
2023-01-19T21:27:08.002Z,66.94
2023-01-19T21:29:13.133Z,66.51
2023-01-19T21:31:15.795Z,66.69
2023-01-19T21:33:19.178Z,66.50
2023-01-19T21:35:21.734Z,67.16
2023-01-19T21:37:24.272Z,67.55
2023-01-19T21:39:26.874Z,66.94
2023-01-19T21:41:30.864Z,67.46
2023-01-19T21:43:37.164Z,67.54
2023-01-19T21:45:41.599Z,66.95
2023-01-19T21:47:45.452Z,67.57
2023-01-19T21:49:48.020Z,67.87
2023-01-19T21:51:51.155Z,67.30
2023-01-19T21:53:56.018Z,67.66
2023-01-19T21:56:00.303Z,67.26
2023-01-19T21:58:02.966Z,67.37
2023-01-19T22:00:10.198Z,67.84
2023-01-19T22:02:14.006Z,67.41
2023-01-19T22:04:16.621Z,67.91
2023-01-19T22:06:19.207Z,67.69
2023-01-19T22:08:21.832Z,68.19
2023-01-19T22:10:24.381Z,68.16
2023-01-19T22:12:26.999Z,68.69
2023-01-19T22:14:29.781Z,67.86
2023-01-19T22:16:33.822Z,68.00
2023-01-19T22:18:36.858Z,67.52
2023-01-19T22:20:39.428Z,67.42
2023-01-19T22:22:41.987Z,67.66
2023-01-19T22:24:46.606Z,67.55
2023-01-19T22:26:49.213Z,67.39
2023-01-19T22:28:54.767Z,67.44
2023-01-19T22:31:03.475Z,67.08
2023-01-19T22:33:07.434Z,67.66
2023-01-19T22:35:10.406Z,67.81
2023-01-19T22:37:12.947Z,67.71
2023-01-19T22:39:16.229Z,68.10
2023-01-19T22:41:21.118Z,67.84
2023-01-19T22:43:23.702Z,67.72
2023-01-19T22:45:26.281Z,68.49
2023-01-19T22:47:28.823Z,67.86
2023-01-19T22:49:32.735Z,67.64
2023-01-19T22:51:36.200Z,68.11
2023-01-19T22:53:38.810Z,67.88
2023-01-19T22:55:41.339Z,67.67
2023-01-19T22:57:43.892Z,68.22
2023-01-19T22:59:46.457Z,68.55
2023-01-19T23:01:50.411Z,68.28
2023-01-19T23:03:54.093Z,68.47
2023-01-19T23:05:58.038Z,67.95
2023-01-19T23:08:00.605Z,68.03
2023-01-19T23:10:06.214Z,68.41
2023-01-19T23:12:08.781Z,68.43
2023-01-19T23:14:15.888Z,68.72
2023-01-19T23:16:19.208Z,68.65
2023-01-19T23:18:21.775Z,68.40
2023-01-19T23:20:24.307Z,68.20
2023-01-19T23:22:28.211Z,68.06
2023-01-19T23:24:30.835Z,67.97
2023-01-19T23:26:37.994Z,67.65
2023-01-19T23:28:41.065Z,67.28
2023-01-19T23:30:43.650Z,67.84
2023-01-19T23:32:50.139Z,67.36
2023-01-19T23:34:52.819Z,67.84
2023-01-19T23:36:57.442Z,68.28
2023-01-19T23:39:03.201Z,67.81
2023-01-19T23:41:06.333Z,67.62
2023-01-19T23:43:08.918Z,68.40
2023-01-19T23:45:12.165Z,68.47
2023-01-19T23:47:15.166Z,68.01
2023-01-19T23:49:18.104Z,68.22
2023-01-19T23:51:22.869Z,68.69
2023-01-19T23:53:25.950Z,67.99
2023-01-19T23:55:29.887Z,68.33
2023-01-19T23:57:32.444Z,68.12
2023-01-19T23:59:35.037Z,68.36
